This is the latest recevied weather packets stored in our database for station/object DF7ER-12. If no packets are shown the sender has not sent any weather packets the latest 10 day(s).
| Time | Temp. | Humidity | Pressure | Rain* | Wind** | Luminosity | Snow |
|---|---|---|---|---|---|---|---|
| 1788354083 | 25.56° C | 59% | 1008.1 hPa | - | - | - | - |
| 1788353783 | 26.11° C | 58% | 1008.1 hPa | - | - | - | - |
| 1788353483 | 24.44° C | 60% | 1008.1 hPa | - | - | - | - |
| 1788353183 | 25.56° C | 61% | 1008.2 hPa | - | - | - | - |
| 1788352883 | 25° C | 62% | 1008.1 hPa | - | - | - | - |
| 1788352583 | 26.11° C | 59% | 1008.2 hPa | - | - | - | - |
| 1788352283 | 25° C | 60% | 1008.2 hPa | - | - | - | - |
| 1788351983 | 26.11° C | 61% | 1008.3 hPa | - | - | - | - |
| 1788351683 | 25.56° C | 61% | 1008.3 hPa | - | - | - | - |
| 1788351383 | 26.11° C | 63% | 1008.3 hPa | - | - | - | - |
| 1788351083 | 25.56° C | 63% | 1008.4 hPa | - | - | - | - |
| 1788350783 | 25.56° C | 65% | 1008.4 hPa | - | - | - | - |
| 1788350483 | 24.44° C | 67% | 1008.4 hPa | - | - | - | - |
| 1788350183 | 25° C | 64% | 1008.4 hPa | - | - | - | - |
| 1788349883 | 25° C | 67% | 1008.5 hPa | - | - | - | - |
| 1788349583 | 25° C | 66% | 1008.5 hPa | - | - | - | - |
| 1788349283 | 25.56° C | 67% | 1008.5 hPa | - | - | - | - |
| 1788348983 | 26.67° C | 66% | 1008.6 hPa | - | - | - | - |
| 1788348683 | 26.11° C | 67% | 1008.6 hPa | - | - | - | - |
| 1788348383 | 25° C | 70% | 1008.7 hPa | - | - | - | - |
| 1788348083 | 25.56° C | 68% | 1008.7 hPa | - | - | - | - |
| 1788347783 | 25.56° C | 69% | 1008.8 hPa | - | - | - | - |
| 1788347483 | 25° C | 70% | 1008.8 hPa | - | - | - | - |
| 1788347183 | 26.11° C | 69% | 1008.9 hPa | - | - | - | - |
| 1788346883 | 25.56° C | 70% | 1008.9 hPa | - | - | - | - |
* Rain since midnight (hover to see other rain measurements)
** Current wind speed in m/s (hover to see current wind gust speed)